createdAt,value
2022-11-13T00:02:26.366Z,62.22
2022-11-13T00:05:11.848Z,55.15
2022-11-13T00:07:57.394Z,57.65
2022-11-13T00:10:42.878Z,53.95
2022-11-13T00:13:30.476Z,54.58
2022-11-13T00:16:19.101Z,53.65
2022-11-13T00:19:04.445Z,54.53
2022-11-13T00:21:49.878Z,50.92
2022-11-13T00:24:35.333Z,49.25
2022-11-13T00:27:21.065Z,46.65
2022-11-13T00:30:06.834Z,46.65
2022-11-13T00:32:52.367Z,46.40
2022-11-13T00:35:37.799Z,50.55
2022-11-13T00:38:23.308Z,48.97
2022-11-13T00:41:09.051Z,46.80
2022-11-13T00:43:54.323Z,46.17
2022-11-13T00:46:39.857Z,44.58
2022-11-13T00:49:24.995Z,44.40
2022-11-13T00:52:10.646Z,45.53
2022-11-13T00:54:56.090Z,45.28
2022-11-13T00:57:41.718Z,43.65
2022-11-13T01:00:27.396Z,42.22
2022-11-13T01:03:13.992Z,43.20
2022-11-13T01:05:59.334Z,42.55
2022-11-13T01:08:45.342Z,41.05
2022-11-13T01:11:31.281Z,41.85
2022-11-13T01:14:16.988Z,39.38
2022-11-13T01:17:02.317Z,39.58
2022-11-13T01:19:48.124Z,39.67
2022-11-13T01:22:33.583Z,40.42
2022-11-13T01:25:19.166Z,38.50
2022-11-13T01:28:04.701Z,41.60
2022-11-13T01:30:50.086Z,38.65
2022-11-13T01:33:35.892Z,39.17
2022-11-13T01:36:27.285Z,38.35
2022-11-13T01:39:12.873Z,40.30
2022-11-13T01:41:58.186Z,38.47
2022-11-13T01:45:00.902Z,38.92
2022-11-13T01:47:46.684Z,37.58
2022-11-13T01:50:32.293Z,40.88
2022-11-13T01:53:18.198Z,36.72
2022-11-13T01:56:03.447Z,37.92
2022-11-13T01:58:58.684Z,39.08
2022-11-13T02:01:43.848Z,39.92
2022-11-13T02:04:31.331Z,37.58
2022-11-13T02:07:20.002Z,37.30
2022-11-13T02:10:06.039Z,36.08
2022-11-13T02:12:52.214Z,36.05
2022-11-13T02:15:39.402Z,34.33
2022-11-13T02:18:27.824Z,36.05
2022-11-13T02:21:37.931Z,35.13
2022-11-13T02:24:23.061Z,34.28
2022-11-13T02:27:21.693Z,35.47
2022-11-13T02:30:27.550Z,33.50
2022-11-13T02:33:33.256Z,32.95
2022-11-13T02:36:22.859Z,33.08
2022-11-13T02:39:11.059Z,33.33
2022-11-13T02:41:56.404Z,33.92
2022-11-13T02:44:42.074Z,34.40
2022-11-13T02:47:28.155Z,31.48
2022-11-13T02:50:14.176Z,30.75
2022-11-13T02:52:59.853Z,32.70
2022-11-13T02:55:45.419Z,30.77
2022-11-13T02:58:31.223Z,32.53
2022-11-13T03:01:17.196Z,33.17
2022-11-13T03:04:05.576Z,32.67
2022-11-13T03:06:51.183Z,32.97
2022-11-13T03:09:36.579Z,32.75
2022-11-13T03:12:22.502Z,33.05
2022-11-13T03:15:09.049Z,33.42
2022-11-13T03:17:54.608Z,35.50
2022-11-13T03:20:42.946Z,34.03
2022-11-13T03:23:28.446Z,36.13
2022-11-13T03:26:16.683Z,36.65
2022-11-13T03:29:01.942Z,37.67
2022-11-13T03:31:47.291Z,40.50
2022-11-13T03:34:32.961Z,46.53
2022-11-13T03:37:18.480Z,38.90
2022-11-13T03:40:04.605Z,42.03
2022-11-13T03:42:50.022Z,40.63
2022-11-13T03:45:35.591Z,41.28
2022-11-13T03:48:21.034Z,40.40
2022-11-13T03:51:07.088Z,36.03
2022-11-13T03:53:52.556Z,35.47
2022-11-13T03:56:37.937Z,37.85
2022-11-13T03:59:23.597Z,35.40
2022-11-13T04:02:09.071Z,36.90
2022-11-13T04:04:54.450Z,38.67
2022-11-13T04:07:40.009Z,37.00
2022-11-13T04:10:25.448Z,34.58
2022-11-13T04:13:11.353Z,29.85
2022-11-13T04:15:56.467Z,30.73
2022-11-13T04:18:41.767Z,36.40
2022-11-13T04:21:28.585Z,33.65
2022-11-13T04:24:13.907Z,30.45
2022-11-13T04:26:59.381Z,29.77
2022-11-13T04:29:44.927Z,31.17
2022-11-13T04:32:30.340Z,30.27
2022-11-13T04:35:15.961Z,30.90
2022-11-13T04:38:01.105Z,28.15
2022-11-13T04:40:50.855Z,29.20
2022-11-13T04:43:36.111Z,27.63
2022-11-13T04:46:21.528Z,27.45
2022-11-13T04:49:07.018Z,29.55
2022-11-13T04:51:52.399Z,29.23
2022-11-13T04:54:37.868Z,27.30
2022-11-13T04:57:23.648Z,28.55
2022-11-13T05:00:10.108Z,29.58
2022-11-13T05:02:56.724Z,27.20
2022-11-13T05:05:42.225Z,28.50
2022-11-13T05:08:27.739Z,27.20
2022-11-13T05:14:03.257Z,24.90
2022-11-13T05:16:50.115Z,27.23
2022-11-13T05:19:35.900Z,26.02
2022-11-13T05:25:06.791Z,27.20
2022-11-13T05:27:52.013Z,26.60
2022-11-13T05:30:37.371Z,24.80
2022-11-13T05:33:22.871Z,23.92
2022-11-13T05:36:14.124Z,23.77
2022-11-13T05:38:59.327Z,31.63
2022-11-13T05:41:45.080Z,28.83
2022-11-13T05:44:30.384Z,31.90
2022-11-13T05:47:16.025Z,27.95
2022-11-13T05:50:01.630Z,26.42
2022-11-13T05:52:48.131Z,28.48
2022-11-13T05:55:33.798Z,25.95
2022-11-13T05:58:19.597Z,25.95
2022-11-13T06:01:30.068Z,25.30
2022-11-13T06:04:15.241Z,23.73
2022-11-13T06:07:00.764Z,25.70
2022-11-13T06:09:46.094Z,21.80
2022-11-13T06:12:31.665Z,31.48
2022-11-13T06:15:17.191Z,36.85
2022-11-13T06:18:02.327Z,33.60
2022-11-13T06:20:47.916Z,33.00
2022-11-13T06:23:35.292Z,32.17
2022-11-13T06:26:23.800Z,30.52
2022-11-13T06:29:11.773Z,32.67
2022-11-13T06:31:57.235Z,33.42
2022-11-13T06:34:42.644Z,33.20
2022-11-13T06:37:31.461Z,31.30
2022-11-13T06:40:19.918Z,31.77
2022-11-13T06:43:05.606Z,29.42
2022-11-13T06:45:50.811Z,31.02
2022-11-13T06:48:36.506Z,28.13
2022-11-13T06:51:25.466Z,31.38
2022-11-13T06:54:11.123Z,33.00
2022-11-13T06:56:56.666Z,33.63
2022-11-13T06:59:43.643Z,39.08
2022-11-13T07:02:29.080Z,34.08
2022-11-13T07:05:14.738Z,36.03
2022-11-13T07:08:00.128Z,36.90
2022-11-13T07:10:54.840Z,35.65
2022-11-13T07:13:40.221Z,37.70
2022-11-13T07:16:31.266Z,41.38
2022-11-13T07:19:30.649Z,44.47
2022-11-13T07:22:16.212Z,42.28
2022-11-13T07:25:02.034Z,38.85
2022-11-13T07:27:47.591Z,38.47
2022-11-13T07:30:33.106Z,42.63
2022-11-13T07:33:18.727Z,40.13
2022-11-13T07:36:04.259Z,27.67
2022-11-13T07:38:49.563Z,36.65
2022-11-13T07:41:34.924Z,37.33
2022-11-13T07:44:47.894Z,29.30
2022-11-13T07:47:27.038Z,28.15
2022-11-13T07:50:12.141Z,27.90
2022-11-13T07:53:03.732Z,28.83
2022-11-13T07:55:49.330Z,32.08
2022-11-13T07:58:34.663Z,32.40
2022-11-13T08:01:20.268Z,29.95
2022-11-13T08:04:05.810Z,30.38
2022-11-13T08:06:51.324Z,33.05
2022-11-13T08:09:36.597Z,34.50
2022-11-13T08:12:21.965Z,32.30
2022-11-13T08:15:12.210Z,32.75
2022-11-13T08:18:00.840Z,27.33
2022-11-13T08:20:45.894Z,30.33
2022-11-13T08:23:32.297Z,34.75
2022-11-13T08:26:18.606Z,32.80
2022-11-13T08:29:04.155Z,29.70
2022-11-13T08:31:49.426Z,29.88
2022-11-13T08:34:36.997Z,25.17
2022-11-13T08:37:22.415Z,26.90
2022-11-13T08:40:08.558Z,25.70
2022-11-13T08:43:01.905Z,29.65
2022-11-13T08:45:47.956Z,28.90
2022-11-13T08:48:33.295Z,30.98
2022-11-13T08:51:18.780Z,37.22
2022-11-13T08:54:04.092Z,42.20
2022-11-13T08:56:54.616Z,34.78
2022-11-13T08:59:41.963Z,36.60
2022-11-13T09:02:27.561Z,37.53
2022-11-13T09:05:12.997Z,39.20
2022-11-13T09:08:00.279Z,39.72
2022-11-13T09:10:45.492Z,36.83
2022-11-13T09:13:32.340Z,37.80
2022-11-13T09:16:17.477Z,39.05
2022-11-13T09:19:03.779Z,32.65
2022-11-13T09:21:49.118Z,27.95
2022-11-13T09:24:35.000Z,29.83
2022-11-13T09:27:20.450Z,29.92
2022-11-13T09:30:06.236Z,25.95
2022-11-13T09:32:57.175Z,26.35
2022-11-13T09:35:43.239Z,28.05
2022-11-13T09:38:31.877Z,26.83
2022-11-13T09:41:31.166Z,27.70
2022-11-13T09:44:31.435Z,26.98
2022-11-13T09:47:25.000Z,68.38
2022-11-13T09:50:22.793Z,174.02
2022-11-13T09:53:11.076Z,60.05
2022-11-13T09:56:28.415Z,31.83
2022-11-13T09:59:36.984Z,74.60
2022-11-13T10:02:48.912Z,37.22
2022-11-13T10:05:59.172Z,25.88
2022-11-13T10:09:01.601Z,25.58
2022-11-13T10:11:56.384Z,27.15
2022-11-13T10:14:46.239Z,28.17
2022-11-13T10:17:51.108Z,28.17
2022-11-13T10:20:49.767Z,27.92
2022-11-13T10:23:37.911Z,31.08
2022-11-13T10:26:26.775Z,31.63
2022-11-13T10:29:18.472Z,35.47
2022-11-13T10:32:17.682Z,37.03
2022-11-13T10:35:06.322Z,37.28
2022-11-13T10:38:09.106Z,46.17
2022-11-13T10:41:15.397Z,49.92
2022-11-13T10:44:18.190Z,59.47
2022-11-13T10:47:36.125Z,57.15
2022-11-13T10:50:31.267Z,55.95
2022-11-13T10:53:20.558Z,52.28
2022-11-13T10:56:33.553Z,50.42
2022-11-13T10:59:20.176Z,46.42
2022-11-13T11:02:26.121Z,46.10
2022-11-13T11:05:23.541Z,47.67
2022-11-13T11:08:10.984Z,49.60
2022-11-13T11:11:26.872Z,51.30
2022-11-13T11:14:26.377Z,49.10
2022-11-13T11:17:14.246Z,47.40
2022-11-13T11:20:17.264Z,44.10
2022-11-13T11:23:27.016Z,43.28
2022-11-13T11:26:23.199Z,44.05
2022-11-13T11:29:28.345Z,40.70
2022-11-13T11:32:24.869Z,40.05
2022-11-13T11:35:21.748Z,40.05
2022-11-13T11:38:29.805Z,39.17
2022-11-13T11:41:19.294Z,35.45
2022-11-13T11:44:16.107Z,34.38
2022-11-13T11:47:01.467Z,32.60
2022-11-13T11:49:47.107Z,31.65
2022-11-13T11:53:01.947Z,31.58
2022-11-13T11:55:53.684Z,30.52
2022-11-13T11:58:57.023Z,29.60
2022-11-13T12:01:53.495Z,29.50
2022-11-13T12:04:53.793Z,29.92
2022-11-13T12:08:05.984Z,29.83
2022-11-13T12:11:36.814Z,30.08
2022-11-13T12:15:04.459Z,28.27
2022-11-13T12:18:06.174Z,29.50
2022-11-13T12:21:03.674Z,28.85
2022-11-13T12:24:26.223Z,30.27
2022-11-13T12:27:39.221Z,30.40
2022-11-13T12:30:42.729Z,30.17
2022-11-13T12:33:36.332Z,30.45
2022-11-13T12:36:22.425Z,29.98
2022-11-13T12:42:21.027Z,31.52
2022-11-13T12:45:25.055Z,30.75
2022-11-13T12:48:16.263Z,32.30
2022-11-13T12:51:13.594Z,33.30
2022-11-13T12:53:58.962Z,30.48
2022-11-13T12:56:44.695Z,30.63
2022-11-13T12:59:34.310Z,29.95
2022-11-13T13:02:50.162Z,33.20
2022-11-13T13:05:58.924Z,33.13
2022-11-13T13:09:15.005Z,32.58
2022-11-13T13:12:58.478Z,31.50
2022-11-13T13:15:46.716Z,32.50
2022-11-13T13:18:38.069Z,31.23
2022-11-13T13:21:23.398Z,30.45
2022-11-13T13:24:26.896Z,26.13
2022-11-13T13:27:24.559Z,25.85
2022-11-13T13:30:22.152Z,24.17
2022-11-13T13:33:24.713Z,25.15
2022-11-13T13:36:39.699Z,25.75
2022-11-13T13:39:49.622Z,24.15
2022-11-13T13:42:47.050Z,23.05
2022-11-13T13:45:54.171Z,21.83
2022-11-13T13:48:42.594Z,20.48
2022-11-13T13:51:51.166Z,22.00
2022-11-13T13:54:40.362Z,22.45
2022-11-13T13:57:26.690Z,23.67
2022-11-13T14:02:58.454Z,21.75
2022-11-13T14:05:44.067Z,22.25
2022-11-13T14:08:30.384Z,23.48
2022-11-13T14:11:18.421Z,22.17
2022-11-13T14:14:19.481Z,27.70
2022-11-13T14:17:04.912Z,32.35
2022-11-13T14:19:55.221Z,26.75
2022-11-13T14:22:43.979Z,25.27
2022-11-13T14:25:29.660Z,23.58
2022-11-13T14:31:08.166Z,23.85
2022-11-13T14:33:53.980Z,24.45
2022-11-13T14:36:40.788Z,25.05
2022-11-13T14:39:32.641Z,25.35
2022-11-13T14:42:28.291Z,28.25
2022-11-13T14:45:20.065Z,30.23
2022-11-13T14:48:24.526Z,29.23
2022-11-13T14:51:33.248Z,29.83
2022-11-13T14:54:46.867Z,30.90
2022-11-13T14:57:34.865Z,32.15
2022-11-13T15:00:31.484Z,33.00
2022-11-13T15:03:17.000Z,30.02
2022-11-13T15:06:02.581Z,29.55
2022-11-13T15:08:49.825Z,30.63
2022-11-13T15:11:36.827Z,30.83
2022-11-13T15:14:23.106Z,32.60
2022-11-13T15:19:55.074Z,30.30
2022-11-13T15:22:41.303Z,31.50
2022-11-13T15:28:11.640Z,28.58
2022-11-13T15:30:57.418Z,29.17
2022-11-13T15:33:42.878Z,29.25
2022-11-13T15:36:28.390Z,28.92
2022-11-13T15:39:23.021Z,32.80
2022-11-13T15:42:15.986Z,30.88
2022-11-13T15:45:02.906Z,30.25
2022-11-13T15:47:48.221Z,30.50
2022-11-13T15:50:33.813Z,32.40
2022-11-13T15:53:19.224Z,30.60
2022-11-13T15:56:06.265Z,30.55
2022-11-13T15:58:51.818Z,31.40
2022-11-13T16:01:37.607Z,32.05
2022-11-13T16:07:19.530Z,30.85
2022-11-13T16:10:05.521Z,32.25
2022-11-13T16:12:51.216Z,32.70
2022-11-13T16:15:36.618Z,32.22
2022-11-13T16:18:27.705Z,34.72
2022-11-13T16:21:14.617Z,33.47
2022-11-13T16:24:00.110Z,33.92
2022-11-13T16:26:56.615Z,34.55
2022-11-13T16:29:42.720Z,34.10
2022-11-13T16:32:27.901Z,37.33
2022-11-13T16:35:15.372Z,36.33
2022-11-13T16:38:00.912Z,36.72
2022-11-13T16:40:46.328Z,40.22
2022-11-13T16:43:31.861Z,39.17
2022-11-13T16:46:30.028Z,36.45
2022-11-13T16:49:19.129Z,38.08
2022-11-13T16:52:04.822Z,38.65
2022-11-13T16:54:51.672Z,38.83
2022-11-13T16:57:37.653Z,39.67
2022-11-13T17:00:25.538Z,37.40
2022-11-13T17:03:10.856Z,38.63
2022-11-13T17:05:56.318Z,38.85
2022-11-13T17:11:30.273Z,36.20
2022-11-13T17:14:16.221Z,36.85
2022-11-13T17:19:47.577Z,37.47
2022-11-13T17:22:33.034Z,37.53
2022-11-13T17:25:20.465Z,37.05
2022-11-13T17:28:05.928Z,38.08
2022-11-13T17:30:57.916Z,36.75
2022-11-13T17:33:44.697Z,36.85
2022-11-13T17:36:29.869Z,37.95
2022-11-13T17:39:15.307Z,38.25
2022-11-13T17:42:01.131Z,38.03
2022-11-13T17:44:46.332Z,35.78
2022-11-13T17:47:34.076Z,38.10
2022-11-13T17:50:19.305Z,38.25
2022-11-13T17:53:04.861Z,37.08
2022-11-13T17:55:58.475Z,40.47
2022-11-13T17:58:45.226Z,41.90
2022-11-13T18:01:33.814Z,40.53
2022-11-13T18:04:19.769Z,40.72
2022-11-13T18:07:05.251Z,43.20
2022-11-13T18:09:50.851Z,40.50
2022-11-13T18:12:36.786Z,42.92
2022-11-13T18:15:22.386Z,41.15
2022-11-13T18:18:08.612Z,41.40
2022-11-13T18:20:54.084Z,42.10
2022-11-13T18:23:39.705Z,41.72
2022-11-13T18:26:25.485Z,40.97
2022-11-13T18:29:10.989Z,43.13
2022-11-13T18:31:56.503Z,41.38
2022-11-13T18:34:42.152Z,41.00
2022-11-13T18:37:27.839Z,41.75
2022-11-13T18:40:13.609Z,43.78
2022-11-13T18:42:58.903Z,44.28
2022-11-13T18:45:44.643Z,44.45
2022-11-13T18:48:31.796Z,44.95
2022-11-13T18:51:22.548Z,46.17
2022-11-13T18:54:11.565Z,44.58
2022-11-13T18:56:57.026Z,45.83
2022-11-13T18:59:42.420Z,49.33
2022-11-13T19:02:28.749Z,48.95
2022-11-13T19:05:14.075Z,50.00
2022-11-13T19:07:59.624Z,48.60
2022-11-13T19:10:45.355Z,49.22
2022-11-13T19:13:30.868Z,48.17
2022-11-13T19:16:19.605Z,48.53
2022-11-13T19:19:08.061Z,50.00
2022-11-13T19:21:53.590Z,49.25
2022-11-13T19:24:39.011Z,51.10
2022-11-13T19:27:24.513Z,51.88
2022-11-13T19:30:10.318Z,56.03
2022-11-13T19:32:55.755Z,55.03
2022-11-13T19:35:41.296Z,58.05
2022-11-13T19:38:27.730Z,60.72
2022-11-13T19:41:13.715Z,57.63
2022-11-13T19:46:48.058Z,57.38
2022-11-13T19:49:34.752Z,57.83
2022-11-13T19:52:19.999Z,56.60
2022-11-13T19:55:05.929Z,53.47
2022-11-13T19:57:51.282Z,59.50
2022-11-13T20:00:36.632Z,54.55
2022-11-13T20:06:15.659Z,55.85
2022-11-13T20:09:02.303Z,58.88
2022-11-13T20:14:39.546Z,63.92
2022-11-13T20:17:25.121Z,66.63
2022-11-13T20:20:10.939Z,65.63
2022-11-13T20:22:56.276Z,65.68
2022-11-13T20:25:41.798Z,60.97
2022-11-13T20:28:29.330Z,64.28
2022-11-13T20:31:22.205Z,64.88
2022-11-13T20:34:07.355Z,62.83
2022-11-13T20:36:53.473Z,60.15
2022-11-13T20:39:41.786Z,65.22
2022-11-13T20:42:28.106Z,62.67
2022-11-13T20:45:13.297Z,66.35
2022-11-13T20:47:58.836Z,61.30
2022-11-13T20:50:44.717Z,59.75
2022-11-13T20:53:30.378Z,58.42
2022-11-13T20:56:17.297Z,55.55
2022-11-13T20:59:04.132Z,55.60
2022-11-13T21:01:49.663Z,56.53
2022-11-13T21:04:35.669Z,55.65
2022-11-13T21:07:20.909Z,54.83
2022-11-13T21:10:06.824Z,53.72
2022-11-13T21:12:52.403Z,53.25
2022-11-13T21:15:38.597Z,52.03
2022-11-13T21:18:24.810Z,51.78
2022-11-13T21:23:58.348Z,51.08
2022-11-13T21:26:43.760Z,51.85
2022-11-13T21:29:29.370Z,52.83
2022-11-13T21:32:15.045Z,50.40
2022-11-13T21:35:00.451Z,48.53
2022-11-13T21:37:45.932Z,48.17
2022-11-13T21:40:31.450Z,46.50
2022-11-13T21:43:16.988Z,47.15
2022-11-13T21:46:06.769Z,45.08
2022-11-13T21:49:00.594Z,44.90
2022-11-13T21:51:46.257Z,47.67
2022-11-13T21:54:31.774Z,47.60
2022-11-13T21:57:18.970Z,47.97
2022-11-13T22:00:04.775Z,45.72
2022-11-13T22:02:50.284Z,46.60
2022-11-13T22:05:36.180Z,45.20
2022-11-13T22:08:21.498Z,46.95
2022-11-13T22:11:07.314Z,47.75
2022-11-13T22:13:52.937Z,51.97
2022-11-13T22:16:41.160Z,46.55
2022-11-13T22:19:29.259Z,46.72
2022-11-13T22:22:16.670Z,46.38
2022-11-13T22:25:02.057Z,48.90
2022-11-13T22:27:47.652Z,48.53
2022-11-13T22:30:33.713Z,48.92
2022-11-13T22:33:19.240Z,48.55
2022-11-13T22:36:07.234Z,43.78
2022-11-13T22:38:53.683Z,47.85
2022-11-13T22:41:39.130Z,48.03
2022-11-13T22:44:31.687Z,47.60
2022-11-13T22:47:33.357Z,45.15
2022-11-13T22:50:21.078Z,44.17
2022-11-13T22:53:06.135Z,41.85
2022-11-13T22:55:51.849Z,41.33
2022-11-13T22:58:37.419Z,40.42
2022-11-13T23:01:28.208Z,37.95
2022-11-13T23:04:14.089Z,36.00
2022-11-13T23:09:45.213Z,33.90
2022-11-13T23:12:31.657Z,33.55
2022-11-13T23:15:17.037Z,33.90
2022-11-13T23:18:07.129Z,32.55
2022-11-13T23:20:55.178Z,32.90
2022-11-13T23:23:41.502Z,33.28
2022-11-13T23:29:13.487Z,32.25
2022-11-13T23:31:58.983Z,32.55
2022-11-13T23:35:00.313Z,31.00
2022-11-13T23:37:46.957Z,32.88
2022-11-13T23:40:32.536Z,32.20
2022-11-13T23:43:18.414Z,30.02
2022-11-13T23:48:49.615Z,32.60
2022-11-13T23:51:35.162Z,31.55
2022-11-13T23:54:20.704Z,32.60
2022-11-13T23:57:06.349Z,32.25
2022-11-13T23:59:51.921Z,32.15
